Time;durP1;ratioP1;P1;durP2;ratioP2;P2;SDS_P1;SDS_P2;PMS_P1;PMS_P2;Temp;Humidity;BMP_temperature;BMP_pressure;BME280_temperature;BME280_humidity;BME280_pressure;Samples;Min_cycle;Max_cycle;Signal;HPM_P1;HPM_P2
2023/12/11 00:02:28;;;;;;;1.73;1.50;;;5.50;91.60;;;;;;4848110;29;20207;-87
2023/12/11 00:04:56;;;;;;;2.20;2.00;;;5.50;91.60;;;;;;4840724;29;20205;-87
2023/12/11 00:07:25;;;;;;;3.10;2.60;;;5.50;91.60;;;;;;4831483;29;20210;-89
2023/12/11 00:09:54;;;;;;;2.43;2.23;;;5.50;91.60;;;;;;4833462;29;20204;-90
2023/12/11 00:12:22;;;;;;;2.43;2.23;;;5.50;91.60;;;;;;4832604;29;20603;-88
2023/12/11 00:14:51;;;;;;;5.63;2.97;;;5.50;91.50;;;;;;4831520;29;20214;-87
2023/12/11 00:17:24;;;;;;;3.63;2.20;;;5.40;91.50;;;;;;4834110;29;20238;-90
2023/12/11 00:19:53;;;;;;;5.80;4.00;;;5.40;91.60;;;;;;4834128;29;20257;-88
2023/12/11 00:22:22;;;;;;;3.27;2.37;;;5.40;91.60;;;;;;4838335;29;20283;-87
2023/12/11 00:24:51;;;;;;;2.57;2.37;;;5.40;91.60;;;;;;4839943;29;20633;-90
2023/12/11 00:27:19;;;;;;;2.93;1.87;;;5.40;91.60;;;;;;4836346;29;20233;-88
2023/12/11 00:29:48;;;;;;;1.20;1.20;;;5.40;91.70;;;;;;4841238;29;20274;-87
2023/12/11 00:32:17;;;;;;;4.37;2.97;;;5.40;91.60;;;;;;4830321;29;20212;-86
2023/12/11 00:34:47;;;;;;;3.60;2.63;;;5.40;91.60;;;;;;4837384;29;20210;-87
2023/12/11 00:37:17;;;;;;;4.30;2.13;;;5.40;91.60;;;;;;4830901;29;21470;-88
2023/12/11 00:39:45;;;;;;;3.67;1.87;;;5.40;91.60;;;;;;4830999;29;20202;-83
2023/12/11 00:42:14;;;;;;;9.03;2.90;;;5.30;91.70;;;;;;4826705;29;20199;-82
2023/12/11 00:44:43;;;;;;;2.77;2.20;;;5.30;91.70;;;;;;4835067;29;20200;-83
2023/12/11 00:47:11;;;;;;;2.90;2.43;;;5.20;91.80;;;;;;4828148;29;20207;-83
2023/12/11 00:49:40;;;;;;;7.43;3.93;;;5.20;91.80;;;;;;4829995;29;20574;-85
2023/12/11 00:52:12;;;;;;;3.10;1.60;;;5.20;91.90;;;;;;4835834;29;20227;-82
2023/12/11 00:54:41;;;;;;;2.63;2.10;;;5.20;91.90;;;;;;4836557;29;20210;-84
2023/12/11 00:57:11;;;;;;;3.83;2.87;;;5.20;92.00;;;;;;4832197;29;20322;-84
2023/12/11 00:59:40;;;;;;;6.50;2.75;;;5.20;91.90;;;;;;4830729;29;20446;-83
2023/12/11 01:02:09;;;;;;;1.93;1.77;;;5.20;92.10;;;;;;4830039;29;20262;-84
2023/12/11 01:04:38;;;;;;;3.67;2.50;;;5.20;92.40;;;;;;4833388;29;20190;-84
2023/12/11 01:07:07;;;;;;;1.00;1.00;;;5.20;92.00;;;;;;4827915;29;20274;-82
2023/12/11 01:09:37;;;;;;;2.50;2.20;;;5.20;92.00;;;;;;4836439;29;20202;-82
2023/12/11 01:12:07;;;;;;;3.27;3.00;;;5.20;92.00;;;;;;4835907;29;20210;-82
2023/12/11 01:14:37;;;;;;;4.47;3.07;;;5.20;92.10;;;;;;4827952;29;20285;-83
2023/12/11 01:17:06;;;;;;;2.90;2.13;;;5.20;92.10;;;;;;4829630;29;20218;-84
2023/12/11 01:19:54;;;;;;;2.57;2.37;;;5.30;92.10;;;;;;4840954;29;20597;-81
2023/12/11 01:22:23;;;;;;;4.78;3.35;;;5.30;92.00;;;;;;4831084;29;20475;-84
2023/12/11 01:24:55;;;;;;;8.30;4.50;;;5.20;92.00;;;;;;4835248;29;20247;-84
2023/12/11 01:27:24;;;;;;;11.27;4.27;;;5.20;92.10;;;;;;4832438;29;20240;-83
2023/12/11 01:29:53;;;;;;;4.53;3.63;;;5.30;92.00;;;;;;4834017;29;20589;-84
2023/12/11 01:32:21;;;;;;;4.93;2.63;;;5.30;92.00;;;;;;4826131;29;20562;-84
2023/12/11 01:34:50;;;;;;;3.17;2.87;;;5.30;92.00;;;;;;4836071;29;20210;-84
2023/12/11 01:37:19;;;;;;;2.97;2.77;;;5.20;92.00;;;;;;4829780;29;20206;-83
2023/12/11 01:39:48;;;;;;;6.23;3.43;;;5.30;92.00;;;;;;4830128;29;20726;-84
2023/12/11 01:42:18;;;;;;;2.10;1.60;;;5.20;92.00;;;;;;4833283;29;20246;-83
2023/12/11 01:44:46;;;;;;;7.50;3.43;;;5.30;92.10;;;;;;4828460;29;20263;-83
2023/12/11 01:47:15;;;;;;;2.40;2.20;;;5.20;92.10;;;;;;4826837;29;20233;-85
2023/12/11 01:49:45;;;;;;;5.07;3.80;;;5.20;92.10;;;;;;4832504;29;20205;-80
2023/12/11 01:52:14;;;;;;;13.57;3.80;;;5.30;92.10;;;;;;4827367;29;20217;-82
2023/12/11 01:54:42;;;;;;;3.00;2.70;;;5.30;92.10;;;;;;4834793;29;20198;-80
2023/12/11 01:57:11;;;;;;;4.97;4.57;;;5.30;92.10;;;;;;4835748;29;20209;-80
2023/12/11 01:59:41;;;;;;;1.93;1.83;;;5.30;92.10;;;;;;4829643;29;20230;-80
2023/12/11 02:02:13;;;;;;;3.80;3.03;;;5.30;92.10;;;;;;4829865;29;20213;-80
2023/12/11 02:04:42;;;;;;;2.30;2.10;;;5.30;92.10;;;;;;4829490;29;20206;-80
2023/12/11 02:07:10;;;;;;;3.40;3.20;;;5.30;92.10;;;;;;4838984;29;20581;-80
2023/12/11 02:09:39;;;;;;;2.97;2.77;;;5.30;92.10;;;;;;4831477;29;20210;-80
2023/12/11 02:12:08;;;;;;;3.13;2.47;;;5.20;92.20;;;;;;4836195;29;20303;-79
2023/12/11 02:14:36;;;;;;;1.83;1.73;;;5.30;92.20;;;;;;4831162;29;20206;-81
2023/12/11 02:17:10;;;;;;;3.50;2.50;;;5.30;92.10;;;;;;4840413;29;20214;-81
2023/12/11 02:19:39;;;;;;;2.17;2.07;;;5.30;92.10;;;;;;4835343;29;20309;-82
2023/12/11 02:22:21;;;;;;;2.00;1.83;;;5.30;92.10;;;;;;4831428;29;20210;-83
2023/12/11 02:24:54;;;;;;;2.90;2.47;;;5.30;92.10;;;;;;4838258;29;20210;-82
2023/12/11 02:27:25;;;;;;;3.50;3.23;;;5.30;92.10;;;;;;4836169;29;20255;-83
2023/12/11 02:29:56;;;;;;;2.83;2.63;;;5.30;92.10;;;;;;4833772;29;20641;-81
2023/12/11 02:32:24;;;;;;;5.93;3.17;;;5.30;92.10;;;;;;4832502;29;20227;-82
2023/12/11 02:34:53;;;;;;;10.97;4.40;;;5.30;92.20;;;;;;4833830;29;20237;-81
2023/12/11 02:40:24;;;;;;;3.73;3.10;;;5.30;92.10;;;;;;4836118;29;20206;-85
2023/12/11 02:42:54;;;;;;;6.67;4.67;;;5.30;92.10;;;;;;4840630;29;20606;-81
2023/12/11 02:45:22;;;;;;;2.37;2.13;;;5.30;92.10;;;;;;4834174;29;20209;-82
2023/12/11 02:47:51;;;;;;;3.10;2.90;;;5.40;92.10;;;;;;4831181;29;20219;-80
2023/12/11 02:50:19;;;;;;;1.40;1.33;;;5.40;92.00;;;;;;4836724;29;20209;-80
2023/12/11 02:52:48;;;;;;;4.73;3.37;;;5.40;92.10;;;;;;4832293;29;20202;-81
2023/12/11 02:55:16;;;;;;;2.00;1.87;;;5.40;92.00;;;;;;4839672;29;20210;-80
2023/12/11 02:57:45;;;;;;;4.10;2.03;;;5.40;92.00;;;;;;4837789;29;20222;-81
2023/12/11 03:00:15;;;;;;;8.60;3.27;;;5.40;92.00;;;;;;4831572;29;20729;-80
2023/12/11 03:02:44;;;;;;;4.87;2.53;;;5.40;92.00;;;;;;4830094;29;20210;-81
2023/12/11 03:05:12;;;;;;;4.90;2.93;;;5.40;92.00;;;;;;4835630;29;20297;-80
2023/12/11 03:07:41;;;;;;;3.57;3.27;;;5.40;92.00;;;;;;4838154;29;20744;-80
2023/12/11 03:10:10;;;;;;;2.67;2.47;;;5.40;91.90;;;;;;4835537;29;21836;-80
2023/12/11 03:12:39;;;;;;;5.60;2.43;;;5.50;92.30;;;;;;4829483;29;20207;-81
2023/12/11 03:15:09;;;;;;;3.13;2.43;;;5.50;92.00;;;;;;4834019;29;20248;-81
2023/12/11 03:17:39;;;;;;;3.80;3.13;;;5.50;92.00;;;;;;4832540;29;20803;-80
2023/12/11 03:20:11;;;;;;;3.27;2.70;;;5.40;91.90;;;;;;4834838;29;20229;-80
2023/12/11 03:22:40;;;;;;;8.63;3.57;;;5.50;91.90;;;;;;4835419;29;20706;-81
2023/12/11 03:25:09;;;;;;;4.33;2.90;;;5.40;91.90;;;;;;4837085;29;20213;-80
2023/12/11 03:27:38;;;;;;;4.30;3.17;;;5.40;92.00;;;;;;4835657;29;20248;-81
2023/12/11 03:33:05;;;;;;;3.47;3.17;;;5.40;92.00;;;;;;4833727;29;20211;-81
2023/12/11 03:35:34;;;;;;;5.77;2.90;;;5.50;92.00;;;;;;4833672;29;20533;-81
2023/12/11 03:40:58;;;;;;;4.43;2.80;;;5.50;92.00;;;;;;4824364;29;20204;-81
2023/12/11 03:43:27;;;;;;;5.47;2.83;;;5.50;92.00;;;;;;4830019;29;20202;-81
2023/12/11 03:45:56;;;;;;;5.57;3.23;;;5.50;92.00;;;;;;4831644;29;20298;-82
2023/12/11 03:48:27;;;;;;;3.20;2.13;;;5.50;92.40;;;;;;4828323;29;20211;-82
2023/12/11 03:50:55;;;;;;;4.63;3.70;;;5.50;92.00;;;;;;4834356;29;20290;-81
2023/12/11 03:53:24;;;;;;;3.13;2.50;;;5.50;92.00;;;;;;4831481;29;20215;-82
2023/12/11 03:55:53;;;;;;;1.87;1.77;;;5.40;92.00;;;;;;4828280;29;20215;-81
2023/12/11 03:58:21;;;;;;;7.33;3.10;;;5.50;92.00;;;;;;4836859;29;20218;-82
2023/12/11 04:00:50;;;;;;;5.73;3.90;;;5.50;92.00;;;;;;4831128;29;20231;-81
2023/12/11 04:06:03;;;;;;;1.20;1.20;;;5.60;92.00;;;;;;4826234;29;20208;-81
2023/12/11 04:11:28;;;;;;;2.70;2.50;;;5.50;92.00;;;;;;4826713;29;20214;-81
2023/12/11 04:13:56;;;;;;;4.30;3.90;;;5.50;92.00;;;;;;4836108;29;20200;-81
2023/12/11 04:16:25;;;;;;;3.40;3.20;;;5.50;92.00;;;;;;4834166;29;20293;-83
2023/12/11 04:18:53;;;;;;;2.93;2.70;;;5.50;92.00;;;;;;4840283;29;20197;-82
2023/12/11 04:21:29;;;;;;;4.97;2.77;;;5.60;92.00;;;;;;4832521;29;20209;-82
2023/12/11 04:23:57;;;;;;;7.07;3.90;;;5.50;92.00;;;;;;4829009;29;20205;-82
2023/12/11 04:26:26;;;;;;;2.60;2.27;;;5.60;92.00;;;;;;4837221;29;20232;-82
2023/12/11 04:28:55;;;;;;;3.13;2.70;;;5.50;92.00;;;;;;4832306;29;20211;-82
2023/12/11 04:31:24;;;;;;;4.53;2.37;;;5.60;92.00;;;;;;4823934;29;20677;-80
2023/12/11 04:33:53;;;;;;;3.80;2.67;;;5.60;92.00;;;;;;4831380;29;20698;-82
2023/12/11 04:36:22;;;;;;;6.87;3.70;;;5.60;92.00;;;;;;4826780;29;20621;-82
2023/12/11 04:38:52;;;;;;;3.83;3.07;;;5.50;92.10;;;;;;4829181;29;20208;-81
2023/12/11 04:41:20;;;;;;;3.37;3.10;;;5.50;92.00;;;;;;4839751;29;20313;-82
2023/12/11 04:43:49;;;;;;;10.07;3.90;;;5.50;92.10;;;;;;4829168;29;20205;-83
2023/12/11 04:46:17;;;;;;;4.87;2.77;;;5.50;92.10;;;;;;4828556;29;20205;-85
2023/12/11 04:48:46;;;;;;;2.90;2.70;;;5.50;92.10;;;;;;4836025;29;20263;-87
2023/12/11 04:51:15;;;;;;;5.60;4.00;;;5.50;92.20;;;;;;4838213;29;20246;-83
2023/12/11 04:56:27;;;;;;;4.77;4.30;;;5.50;92.20;;;;;;4826105;29;20666;-84
2023/12/11 04:58:56;;;;;;;3.53;3.23;;;5.40;92.20;;;;;;4829094;29;20275;-83
2023/12/11 05:01:26;;;;;;;4.03;3.37;;;5.50;92.20;;;;;;4825390;29;20240;-85
2023/12/11 05:03:55;;;;;;;3.87;3.47;;;5.50;92.20;;;;;;4832056;29;20217;-83
2023/12/11 05:06:24;;;;;;;3.03;2.70;;;5.50;92.20;;;;;;4835403;29;20241;-80
2023/12/11 05:08:52;;;;;;;6.47;3.30;;;5.50;92.20;;;;;;4832817;29;20206;-83
2023/12/11 05:11:21;;;;;;;10.00;4.57;;;5.50;92.20;;;;;;4833089;29;20203;-83
2023/12/11 05:13:51;;;;;;;8.20;3.97;;;5.50;92.20;;;;;;4834985;29;20210;-83
2023/12/11 05:16:19;;;;;;;6.57;3.20;;;5.50;92.10;;;;;;4835220;29;20214;-81
2023/12/11 05:18:51;;;;;;;2.27;2.10;;;5.50;92.20;;;;;;4838312;29;20282;-81
2023/12/11 05:21:19;;;;;;;3.27;2.27;;;5.50;92.20;;;;;;4831007;29;20257;-82
2023/12/11 05:23:48;;;;;;;5.30;3.30;;;5.50;92.20;;;;;;4831911;29;20221;-83
2023/12/11 05:26:20;;;;;;;2.03;1.93;;;5.40;92.10;;;;;;4835967;29;20235;-86
2023/12/11 05:28:51;;;;;;;7.53;3.50;;;5.40;92.10;;;;;;4834770;29;20584;-85
2023/12/11 05:31:18;;;;;;;5.30;2.53;;;5.40;92.10;;;;;;4835693;29;20224;-86
2023/12/11 05:33:47;;;;;;;3.37;3.07;;;5.40;92.10;;;;;;4833221;29;20229;-85
2023/12/11 05:36:15;;;;;;;19.47;4.60;;;5.40;92.10;;;;;;4827872;29;20218;-87
2023/12/11 05:38:44;;;;;;;8.43;4.63;;;5.40;92.10;;;;;;4838641;29;20630;-85
2023/12/11 05:41:13;;;;;;;3.57;3.23;;;5.40;92.10;;;;;;4842770;29;20503;-85
2023/12/11 05:43:42;;;;;;;3.07;2.73;;;5.40;92.10;;;;;;4838645;29;20207;-89
2023/12/11 05:49:08;;;;;;;6.28;4.30;;;5.50;92.10;;;;;;4833994;29;20797;-85
2023/12/11 05:51:36;;;;;;;4.40;3.57;;;5.40;92.10;;;;;;4831730;29;20207;-85
2023/12/11 05:54:05;;;;;;;4.20;3.10;;;5.40;92.10;;;;;;4834250;29;20211;-86
2023/12/11 05:56:34;;;;;;;4.50;3.63;;;5.50;92.20;;;;;;4839785;29;20811;-85
2023/12/11 06:01:47;;;;;;;5.35;3.28;;;5.50;92.20;;;;;;4831444;29;20570;-85
2023/12/11 06:07:14;;;;;;;2.37;2.17;;;5.50;92.30;;;;;;4851488;29;20198;-88
2023/12/11 06:09:43;;;;;;;5.27;3.53;;;5.50;92.20;;;;;;4841471;29;20217;-89
2023/12/11 06:12:25;;;;;;;4.23;3.90;;;5.60;92.20;;;;;;4839160;29;20237;-84
2023/12/11 06:14:54;;;;;;;3.40;3.10;;;5.60;92.10;;;;;;4843866;29;20222;-89
2023/12/11 06:17:24;;;;;;;3.73;2.90;;;5.70;92.20;;;;;;4840148;29;20225;-87
2023/12/11 06:19:52;;;;;;;5.77;3.23;;;5.70;92.00;;;;;;4843346;29;20260;-89
2023/12/11 06:22:21;;;;;;;3.87;2.83;;;5.70;91.90;;;;;;4840225;29;20270;-89
2023/12/11 06:24:49;;;;;;;6.03;3.03;;;5.80;92.30;;;;;;4840070;29;20446;-88
2023/12/11 06:27:18;;;;;;;4.87;4.37;;;5.80;92.00;;;;;;4843097;29;20232;-90
2023/12/11 06:29:47;;;;;;;3.80;2.70;;;5.90;91.90;;;;;;4839517;29;20214;-89
2023/12/11 06:32:15;;;;;;;4.57;3.07;;;5.90;91.90;;;;;;4838126;29;20232;-89
2023/12/11 06:34:45;;;;;;;6.73;3.93;;;5.90;91.80;;;;;;4843793;29;20213;-89
2023/12/11 06:37:14;;;;;;;5.30;3.28;;;6.00;91.70;;;;;;4840193;29;20454;-89
2023/12/11 06:39:43;;;;;;;2.27;2.07;;;6.00;91.70;;;;;;4841945;29;20199;-90
2023/12/11 06:42:12;;;;;;;4.17;3.03;;;6.10;91.60;;;;;;4844406;29;20227;-90
2023/12/11 06:44:41;;;;;;;2.63;2.30;;;6.10;91.60;;;;;;4840615;29;20209;-91
2023/12/11 06:47:11;;;;;;;3.07;2.87;;;6.10;91.30;;;;;;4844234;29;20213;-88
2023/12/11 06:49:42;;;;;;;3.23;2.50;;;6.10;91.30;;;;;;4837499;29;20507;-90
2023/12/11 06:52:15;;;;;;;5.87;3.13;;;6.10;91.50;;;;;;4842769;29;20206;-89
2023/12/11 06:54:44;;;;;;;12.47;4.27;;;6.10;91.40;;;;;;4842404;29;20210;-89
2023/12/11 06:57:13;;;;;;;8.07;5.20;;;6.10;91.30;;;;;;4850451;29;20235;-90
2023/12/11 06:59:44;;;;;;;7.55;4.60;;;6.10;91.10;;;;;;4844584;29;20451;-87
2023/12/11 07:02:14;;;;;;;3.97;3.57;;;6.20;91.20;;;;;;4839037;29;20230;-89
2023/12/11 07:04:43;;;;;;;1.90;1.80;;;6.10;91.10;;;;;;4839198;29;20682;-87
2023/12/11 07:07:14;;;;;;;4.20;3.47;;;6.20;91.20;;;;;;4842112;29;20271;-90
2023/12/11 07:09:46;;;;;;;3.47;2.87;;;6.20;91.10;;;;;;4851094;29;20202;-88
2023/12/11 07:12:15;;;;;;;6.90;4.33;;;6.30;91.20;;;;;;4837944;29;20571;-89
2023/12/11 07:14:44;;;;;;;4.17;3.27;;;6.30;91.00;;;;;;4836929;29;20752;-88
2023/12/11 07:17:12;;;;;;;4.73;3.37;;;6.30;91.00;;;;;;4838871;29;20209;-88
2023/12/11 07:19:41;;;;;;;6.63;3.83;;;6.20;90.90;;;;;;4845071;29;20199;-89
2023/12/11 07:22:10;;;;;;;5.50;4.10;;;6.30;91.00;;;;;;4838751;29;20233;-85
2023/12/11 07:24:40;;;;;;;6.93;4.13;;;6.30;91.00;;;;;;4840927;29;20217;-86
2023/12/11 07:27:09;;;;;;;3.50;3.20;;;6.30;90.90;;;;;;4834876;29;20227;-88
2023/12/11 07:29:37;;;;;;;13.50;4.27;;;6.40;91.00;;;;;;4832215;29;20207;-88
2023/12/11 07:32:06;;;;;;;6.77;4.17;;;6.40;91.00;;;;;;4838759;29;20210;-86
2023/12/11 07:34:35;;;;;;;3.43;3.13;;;6.40;91.00;;;;;;4840228;29;20221;-83
2023/12/11 07:37:04;;;;;;;2.13;2.03;;;6.50;91.00;;;;;;4838946;29;20223;-83
2023/12/11 07:39:33;;;;;;;3.20;2.43;;;6.50;90.80;;;;;;4836158;29;20213;-83
2023/12/11 07:42:03;;;;;;;6.10;4.30;;;6.50;90.80;;;;;;4837587;29;20230;-82
2023/12/11 07:44:31;;;;;;;2.90;2.07;;;6.60;90.80;;;;;;4833747;29;20221;-84
2023/12/11 07:47:00;;;;;;;4.83;3.73;;;6.60;90.80;;;;;;4840036;29;20210;-82
2023/12/11 07:49:28;;;;;;;4.93;4.47;;;6.60;90.80;;;;;;4838531;29;20552;-83
2023/12/11 07:51:58;;;;;;;4.47;3.60;;;6.70;90.70;;;;;;4839602;29;20318;-83
2023/12/11 07:54:27;;;;;;;6.07;3.07;;;6.70;90.60;;;;;;4837585;29;20206;-83
2023/12/11 07:56:55;;;;;;;3.50;3.27;;;6.70;90.40;;;;;;4834651;29;20774;-82
2023/12/11 07:59:25;;;;;;;3.43;3.10;;;6.80;90.50;;;;;;4832891;29;20207;-83
2023/12/11 08:01:54;;;;;;;7.80;5.07;;;6.70;90.30;;;;;;4834949;29;20314;-82
2023/12/11 08:04:23;;;;;;;3.73;3.10;;;6.80;90.30;;;;;;4826340;29;20218;-83
2023/12/11 08:06:51;;;;;;;3.97;3.57;;;6.80;90.30;;;;;;4833068;29;20298;-84
2023/12/11 08:09:20;;;;;;;6.57;5.17;;;6.80;90.40;;;;;;4832952;29;20565;-81
2023/12/11 08:14:37;;;;;;;7.77;3.83;;;6.90;90.30;;;;;;4830419;29;20287;-82
2023/12/11 08:17:07;;;;;;;5.00;4.50;;;6.90;90.30;;;;;;4838449;29;20215;-81
2023/12/11 08:19:35;;;;;;;4.63;2.60;;;7.00;90.30;;;;;;4827172;29;20210;-81
2023/12/11 08:22:18;;;;;;;2.77;2.57;;;7.00;90.20;;;;;;4827774;29;20223;-81
2023/12/11 08:24:47;;;;;;;1.83;1.73;;;7.00;90.10;;;;;;4827599;29;20211;-81
2023/12/11 08:27:29;;;;;;;4.77;2.30;;;7.00;90.10;;;;;;4833330;29;20690;-81
2023/12/11 08:30:00;;;;;;;7.47;3.97;;;7.10;90.10;;;;;;4827798;29;20795;-81
2023/12/11 08:32:42;;;;;;;6.37;4.80;;;7.00;90.00;;;;;;4832978;29;20664;-82
2023/12/11 08:35:11;;;;;;;5.50;3.63;;;7.10;90.10;;;;;;4834091;29;20214;-81
2023/12/11 08:37:53;;;;;;;3.23;1.93;;;7.10;90.10;;;;;;4830730;29;20225;-82
2023/12/11 08:40:36;;;;;;;2.93;2.70;;;7.10;90.00;;;;;;4829317;29;20203;-80
2023/12/11 08:43:18;;;;;;;5.40;2.70;;;7.10;90.00;;;;;;4834174;29;20755;-80
2023/12/11 08:45:48;;;;;;;8.65;3.53;;;7.10;90.00;;;;;;4832932;29;20443;-84
2023/12/11 08:48:17;;;;;;;4.03;3.30;;;7.00;90.00;;;;;;4825630;29;20221;-82
2023/12/11 08:53:28;;;;;;;4.37;4.07;;;7.10;90.00;;;;;;4828992;29;20217;-79
2023/12/11 08:55:56;;;;;;;1.67;1.57;;;7.10;90.00;;;;;;4829587;29;20218;-80
2023/12/11 08:58:26;;;;;;;6.47;2.67;;;7.10;90.00;;;;;;4828006;29;20218;-84
2023/12/11 09:00:56;;;;;;;2.60;2.10;;;7.10;90.10;;;;;;4827550;29;20210;-83
2023/12/11 09:03:25;;;;;;;7.13;4.57;;;7.20;90.10;;;;;;4834315;29;20244;-81
2023/12/11 09:08:50;;;;;;;3.97;3.50;;;7.20;90.10;;;;;;4829713;29;20210;-80
2023/12/11 09:14:01;;;;;;;4.30;3.10;;;7.20;90.00;;;;;;4828284;29;20218;-81
2023/12/11 09:16:31;;;;;;;8.43;5.00;;;7.20;90.00;;;;;;4834152;29;20230;-81
2023/12/11 09:18:59;;;;;;;5.80;3.87;;;7.20;90.00;;;;;;4835226;29;20686;-79
2023/12/11 09:24:11;;;;;;;5.13;4.30;;;7.20;90.00;;;;;;4831855;29;20210;-81
2023/12/11 09:29:22;;;;;;;3.37;2.73;;;7.20;90.10;;;;;;4826593;29;20203;-79
2023/12/11 09:31:55;;;;;;;8.33;3.90;;;7.20;90.10;;;;;;4828960;29;20238;-81
2023/12/11 09:34:23;;;;;;;7.23;3.67;;;7.20;90.20;;;;;;4832142;29;20680;-80
2023/12/11 09:40:10;;;;;;;2.73;2.53;;;7.20;90.20;;;;;;4834942;29;20225;-81
2023/12/11 09:42:41;;;;;;;3.57;2.27;;;7.20;90.30;;;;;;4831087;29;20231;-80
2023/12/11 09:45:12;;;;;;;3.43;3.13;;;7.20;90.40;;;;;;4834135;29;20209;-81
2023/12/11 09:47:47;;;;;;;4.57;3.27;;;7.20;90.50;;;;;;4833753;29;20697;-82
2023/12/11 09:50:16;;;;;;;6.83;4.30;;;7.20;90.60;;;;;;4829115;29;20621;-81
2023/12/11 09:58:37;;;;;;;4.57;4.07;;;7.20;90.70;;;;;;4830194;29;20242;-82
2023/12/11 10:18:21;;;;;;;4.30;3.77;;;7.20;91.00;;;;;;4827358;29;20207;-82
2023/12/11 10:20:56;;;;;;;9.73;5.67;;;7.20;91.00;;;;;;4832026;29;20214;-82
2023/12/11 10:23:25;;;;;;;10.13;3.13;;;7.20;90.90;;;;;;4833534;29;20233;-82
2023/12/11 10:26:05;;;;;;;2.65;2.45;;;7.20;91.00;;;;;;4820830;29;20110;-82
2023/12/11 10:28:33;;;;;;;2.60;2.43;;;7.20;91.00;;;;;;4829436;29;20207;-81
2023/12/11 10:31:04;;;;;;;3.30;2.43;;;7.20;91.00;;;;;;4842413;29;20576;-81
2023/12/11 10:33:33;;;;;;;2.47;2.27;;;7.20;91.00;;;;;;4834111;29;20214;-83
2023/12/11 10:36:15;;;;;;;7.30;3.50;;;7.30;91.00;;;;;;4833707;29;20203;-81
2023/12/11 10:38:46;;;;;;;2.77;2.53;;;7.30;91.00;;;;;;4830162;29;20203;-80
2023/12/11 10:41:26;;;;;;;2.43;2.23;;;7.30;91.00;;;;;;4832557;29;20240;-80
2023/12/11 10:46:50;;;;;;;8.13;3.57;;;7.30;90.80;;;;;;4828952;29;20211;-79
2023/12/11 10:49:32;;;;;;;5.23;4.10;;;7.40;90.80;;;;;;4836868;29;20201;-79
2023/12/11 10:52:16;;;;;;;5.97;3.73;;;7.40;90.80;;;;;;4837348;29;20290;-79
2023/12/11 10:54:59;;;;;;;7.43;3.73;;;7.40;90.70;;;;;;4834325;29;20214;-79
2023/12/11 10:57:29;;;;;;;3.60;3.13;;;7.40;91.00;;;;;;4833068;29;20631;-79
2023/12/11 10:59:58;;;;;;;9.93;5.50;;;7.40;90.60;;;;;;4831331;29;20248;-79
2023/12/11 11:02:28;;;;;;;3.88;2.28;;;7.40;90.70;;;;;;4824408;29;20456;-79
2023/12/11 11:04:57;;;;;;;4.77;4.07;;;7.40;90.90;;;;;;4838623;29;20261;-79
2023/12/11 11:07:32;;;;;;;3.97;3.43;;;7.50;90.80;;;;;;4829875;29;20219;-79
2023/12/11 11:10:07;;;;;;;2.80;2.60;;;7.50;90.70;;;;;;4836637;29;21676;-80
2023/12/11 11:12:42;;;;;;;2.90;2.70;;;7.40;90.60;;;;;;4832479;29;20293;-81
2023/12/11 11:15:11;;;;;;;2.43;2.23;;;7.40;90.70;;;;;;4832127;29;20210;-79
2023/12/11 11:18:00;;;;;;;7.67;5.60;;;7.40;90.60;;;;;;4839923;29;20229;-81
2023/12/11 11:20:30;;;;;;;7.63;6.00;;;7.40;90.70;;;;;;4836618;29;20564;-80
2023/12/11 11:23:26;;;;;;;5.03;4.27;;;7.40;90.70;;;;;;4830237;29;20393;-80
2023/12/11 11:25:56;;;;;;;5.93;3.03;;;7.40;90.70;;;;;;4819469;29;20468;-81
2023/12/11 11:28:41;;;;;;;3.57;3.27;;;7.40;90.90;;;;;;4831343;29;20210;-79
2023/12/11 11:31:12;;;;;;;5.97;3.97;;;7.50;91.00;;;;;;4837074;29;20258;-79
2023/12/11 11:33:56;;;;;;;4.43;1.97;;;7.50;90.90;;;;;;4833130;29;20211;-81
2023/12/11 11:36:45;;;;;;;3.73;2.77;;;7.50;90.90;;;;;;4828856;29;20692;-78
2023/12/11 11:39:15;;;;;;;3.67;3.07;;;7.50;90.90;;;;;;4834385;29;20669;-80
2023/12/11 11:41:44;;;;;;;10.20;4.30;;;7.50;90.80;;;;;;4832191;29;20202;-80
2023/12/11 11:44:16;;;;;;;4.13;3.83;;;7.50;90.90;;;;;;4831893;29;20570;-81
2023/12/11 11:46:55;;;;;;;6.63;3.83;;;7.50;90.80;;;;;;4832288;29;20713;-80
2023/12/11 11:49:29;;;;;;;3.87;2.73;;;7.40;90.90;;;;;;4829950;29;20267;-80
2023/12/11 11:51:58;;;;;;;7.67;5.53;;;7.50;90.90;;;;;;4836576;29;20879;-80
2023/12/11 11:54:33;;;;;;;3.17;2.97;;;7.40;90.90;;;;;;4825506;29;20791;-80
2023/12/11 11:57:02;;;;;;;5.50;3.43;;;7.50;91.00;;;;;;4830437;29;20198;-80
2023/12/11 11:59:31;;;;;;;3.10;2.90;;;7.50;91.00;;;;;;4834466;29;20289;-79
2023/12/11 12:01:59;;;;;;;5.90;4.43;;;7.50;91.00;;;;;;4829995;29;20230;-80
2023/12/11 12:04:29;;;;;;;2.80;2.60;;;7.50;91.10;;;;;;4829047;29;20229;-79
2023/12/11 12:07:00;;;;;;;4.07;3.70;;;7.40;91.10;;;;;;4836178;29;20721;-79
2023/12/11 12:09:30;;;;;;;3.03;2.50;;;7.40;91.20;;;;;;4834230;29;20224;-78
2023/12/11 12:11:59;;;;;;;4.03;3.73;;;7.40;91.20;;;;;;4831708;29;20297;-81
2023/12/11 12:14:28;;;;;;;4.03;3.43;;;7.50;91.30;;;;;;4831863;29;20290;-80
2023/12/11 12:16:57;;;;;;;4.73;3.20;;;7.50;91.30;;;;;;4829337;29;20211;-79
2023/12/11 12:19:35;;;;;;;4.20;2.33;;;7.40;91.30;;;;;;4830479;29;20293;-81
2023/12/11 12:22:04;;;;;;;3.30;2.83;;;7.40;91.30;;;;;;4834949;29;20245;-82
2023/12/11 12:24:59;;;;;;;4.20;3.80;;;7.50;91.30;;;;;;4838308;29;20870;-79
2023/12/11 12:27:28;;;;;;;2.87;2.67;;;7.50;91.40;;;;;;4829473;29;20698;-84
2023/12/11 12:29:57;;;;;;;3.93;3.53;;;7.40;91.50;;;;;;4837019;29;20692;-85
2023/12/11 12:32:27;;;;;;;4.00;2.67;;;7.40;91.50;;;;;;4837686;29;20218;-80
2023/12/11 12:34:56;;;;;;;7.30;3.60;;;7.40;91.50;;;;;;4831799;29;20246;-80
2023/12/11 12:37:26;;;;;;;4.10;3.07;;;7.50;91.90;;;;;;4835317;29;20553;-81
2023/12/11 12:39:58;;;;;;;5.37;4.17;;;7.50;91.50;;;;;;4837444;29;20241;-79
2023/12/11 12:42:30;;;;;;;5.50;3.40;;;7.50;91.50;;;;;;4838362;29;20202;-80
2023/12/11 12:44:59;;;;;;;7.53;3.63;;;7.50;91.60;;;;;;4832527;29;20234;-81
2023/12/11 12:47:28;;;;;;;3.85;2.97;;;7.50;91.50;;;;;;4836263;29;20491;-81
2023/12/11 12:49:57;;;;;;;4.70;3.63;;;7.50;91.60;;;;;;4837763;29;20630;-81
2023/12/11 12:52:27;;;;;;;14.70;5.33;;;7.50;91.70;;;;;;4830251;29;20618;-82
2023/12/11 12:54:57;;;;;;;5.70;3.97;;;7.60;91.70;;;;;;4829064;29;20263;-81
2023/12/11 12:57:26;;;;;;;5.57;3.67;;;7.60;91.60;;;;;;4831015;29;20226;-83
2023/12/11 12:59:54;;;;;;;3.60;2.57;;;7.60;91.60;;;;;;4834602;29;20234;-84
2023/12/11 13:02:23;;;;;;;3.03;2.83;;;7.70;91.60;;;;;;4835702;29;21810;-83
2023/12/11 13:04:55;;;;;;;3.83;3.53;;;7.60;91.60;;;;;;4827270;29;20247;-83
2023/12/11 13:07:26;;;;;;;4.37;3.93;;;7.70;91.60;;;;;;4829108;29;20556;-83
2023/12/11 13:09:57;;;;;;;4.97;2.97;;;7.80;91.60;;;;;;4836820;29;20580;-85
2023/12/11 13:12:26;;;;;;;4.10;3.50;;;7.80;91.60;;;;;;4835561;29;20289;-83
2023/12/11 13:14:55;;;;;;;1.97;1.83;;;7.80;91.60;;;;;;4826839;29;20207;-83
2023/12/11 13:17:24;;;;;;;5.53;3.80;;;7.90;91.60;;;;;;4835188;29;20218;-83
2023/12/11 13:19:52;;;;;;;2.60;2.33;;;7.90;91.50;;;;;;4829903;29;20199;-83
2023/12/11 13:22:21;;;;;;;2.37;2.27;;;7.90;91.40;;;;;;4829166;29;20669;-80
2023/12/11 13:24:51;;;;;;;5.23;3.30;;;7.90;91.30;;;;;;4827019;29;20236;-81
2023/12/11 13:27:25;;;;;;;4.77;2.37;;;7.90;91.30;;;;;;4826194;29;20670;-82
2023/12/11 13:29:54;;;;;;;7.47;3.83;;;7.90;91.40;;;;;;4832878;29;20207;-87
2023/12/11 13:32:23;;;;;;;5.47;3.00;;;7.90;91.30;;;;;;4835546;29;20215;-83
2023/12/11 13:34:51;;;;;;;5.87;2.43;;;7.90;91.40;;;;;;4838499;29;20211;-89
2023/12/11 13:37:20;;;;;;;5.67;2.93;;;7.90;91.30;;;;;;4838548;29;20217;-88
2023/12/11 13:39:49;;;;;;;5.53;3.47;;;8.00;91.30;;;;;;4837670;29;20206;-88
2023/12/11 13:42:18;;;;;;;2.27;2.07;;;7.90;91.20;;;;;;4834656;29;20244;-88
2023/12/11 13:44:48;;;;;;;5.53;4.00;;;7.90;91.20;;;;;;4838542;29;20222;-89
2023/12/11 13:47:18;;;;;;;4.27;3.87;;;8.00;91.20;;;;;;4835587;29;20215;-86
2023/12/11 13:49:46;;;;;;;4.47;2.93;;;7.90;91.20;;;;;;4837128;29;20207;-84
2023/12/11 13:52:15;;;;;;;9.93;4.27;;;8.00;91.20;;;;;;4830116;29;20207;-86
2023/12/11 13:54:57;;;;;;;13.73;4.20;;;8.00;91.20;;;;;;4835990;29;20206;-82
2023/12/11 14:00:23;;;;;;;5.00;1.80;;;8.00;91.10;;;;;;4837543;29;20685;-83
2023/12/11 14:02:52;;;;;;;3.67;2.50;;;8.10;91.10;;;;;;4840491;29;20221;-82
2023/12/11 14:06:14;;;;;;;9.40;3.17;;;8.10;91.10;;;;;;4833220;29;20231;-85
2023/12/11 14:12:40;;;;;;;4.23;3.10;;;8.10;91.00;;;;;;4832896;29;20241;-85
2023/12/11 14:15:09;;;;;;;4.13;3.20;;;8.10;91.00;;;;;;4840245;29;20289;-85
2023/12/11 14:18:08;;;;;;;3.27;2.60;;;8.10;90.90;;;;;;4842067;29;20214;-86
2023/12/11 14:20:39;;;;;;;3.83;3.53;;;8.20;91.00;;;;;;4839625;29;20202;-86
2023/12/11 14:26:18;;;;;;;0.80;0.80;;;8.20;90.90;;;;;;4840268;29;20313;-86
2023/12/11 14:34:26;;;;;;;2.77;2.50;;;8.20;90.80;;;;;;4839516;29;20568;-85
2023/12/11 14:36:55;;;;;;;17.73;2.40;;;8.30;90.80;;;;;;4835044;29;20210;-85
2023/12/11 14:39:24;;;;;;;2.47;2.27;;;8.30;90.80;;;;;;4840910;29;20230;-85
2023/12/11 14:41:52;;;;;;;16.30;2.53;;;8.30;90.70;;;;;;4840854;29;20210;-86
2023/12/11 14:44:21;;;;;;;3.40;3.10;;;8.30;90.70;;;;;;4840488;29;20240;-85